Bookmark and Share
Track history (hours):
 

Three Stars

Last reported at 2014-Apr-03 11:20 UTC. Time now 2014-Apr-18 16:22 UTC.
Position N 10°42' W 016°51'.
Warning: this ship's position is 15 days out of date.

Length 225 m; draft 12.5 m.

Type: Cargo ship. MMSI: 372950000.

NotesDate/timePositionNaut miles runAvg speedWind from/ knotsBaromVisibWave heightAir tempDewpointWater temp
2014-Apr-03 11:20N 10°42' W 016°51'9811.2
2014-Apr-03 02:33N 10°05' W 015°18'52 2.1
2014-Apr-02 02:31N 10°39' W 014°38'0 0.0
2014-Apr-01 20:18N 10°39' W 014°38'1 0.6
2014-Apr-01 19:20N 10°38' W 014°38'0 0.0
2014-Apr-01 06:20N 10°38' W 014°38'0 0.2
2014-Apr-01 05:17N 10°38' W 014°38'0 0.0
2014-Apr-01 01:23N 10°38' W 014°38'0 0.0
2014-Apr-01 00:26N 10°38' W 014°38'0 0.0
2014-Mar-31 18:32N 10°38' W 014°38'5 0.6
2014-Mar-31 10:23N 10°34' W 014°41'7 8.4
2014-Mar-31 09:33N 10°28' W 014°45'3 2.3
2014-Mar-31 08:26N 10°26' W 014°47'0 0.0
2014-Mar-31 07:14N 10°26' W 014°47'0 0.0
2014-Mar-31 06:29N 10°26' W 014°47'0 0.0
2014-Mar-31 05:29N 10°26' W 014°47'0 0.1
2014-Mar-31 04:32N 10°26' W 014°47'0 0.1
2014-Mar-31 03:17N 10°26' W 014°47'0 0.1
2014-Mar-31 01:23N 10°26' W 014°47'0 0.0
2014-Mar-31 00:20N 10°26' W 014°47'0 0.0
2014-Mar-30 23:26N 10°26' W 014°47'0 0.2
2014-Mar-30 22:26N 10°26' W 014°47'0 0.0
2014-Mar-30 21:26N 10°26' W 014°47'0 0.0
2014-Mar-30 20:26N 10°26' W 014°47'0 0.0
2014-Mar-30 18:17N 10°26' W 014°47'0 0.0
2014-Mar-30 17:11N 10°26' W 014°47'0 0.0
2014-Mar-30 16:29N 10°26' W 014°47'0 0.1
2014-Mar-30 14:29N 10°26' W 014°47'0 0.0
2014-Mar-30 13:17N 10°26' W 014°47'0 0.0
2014-Mar-30 12:17N 10°26' W 014°47'0 0.0
2014-Mar-30 11:20N 10°26' W 014°47'0 0.0
2014-Mar-30 10:23N 10°26' W 014°47'0 0.2
2014-Mar-30 09:26N 10°26' W 014°47'0 0.0
2014-Mar-30 08:26N 10°26' W 014°47'0 0.0
2014-Mar-30 07:11N 10°26' W 014°47'0 0.0
2014-Mar-30 06:11N 10°26' W 014°47'0 0.0
2014-Mar-30 05:29N 10°26' W 014°47'0 0.0
2014-Mar-30 04:29N 10°26' W 014°47'0 0.1
2014-Mar-30 03:32N 10°26' W 014°47'0 0.1
2014-Mar-30 02:29N 10°26' W 014°47'0 0.1
2014-Mar-30 01:32N 10°26' W 014°47'0 0.0
2014-Mar-30 00:32N 10°26' W 014°47'0 0.0
2014-Mar-29 23:20N 10°26' W 014°47'0 0.0
2014-Mar-29 13:14N 10°26' W 014°47'0 0.0
2014-Mar-29 12:29N 10°26' W 014°47'0 0.0
2014-Mar-29 11:17N 10°26' W 014°47'0 0.1
2014-Mar-29 09:05N 10°26' W 014°47'0 0.2
2014-Mar-29 08:32N 10°26' W 014°47'0 0.1
2014-Mar-29 07:08N 10°26' W 014°47'0 0.0
2014-Mar-29 06:32N 10°26' W 014°47'0 0.0
2014-Mar-29 02:11N 10°26' W 014°47'0 0.1
2014-Mar-29 01:26N 10°26' W 014°47'0 0.0
2014-Mar-29 00:14N 10°26' W 014°47'0 0.0
2014-Mar-28 21:32N 10°26' W 014°47'0 0.1
2014-Mar-28 20:17N 10°26' W 014°47'0 0.0
2014-Mar-28 18:05N 10°26' W 014°47'0 0.0
2014-Mar-28 17:08N 10°26' W 014°47'0 0.0
2014-Mar-28 16:23N 10°26' W 014°47'0 0.0
2014-Mar-28 15:23N 10°26' W 014°47'0 0.1
2014-Mar-28 13:26N 10°26' W 014°47'0 0.1
2014-Mar-28 12:08N 10°26' W 014°47'0 0.0
2014-Mar-28 11:11N 10°26' W 014°47'0 0.1
2014-Mar-28 07:17N 10°26' W 014°47'0 0.0
2014-Mar-28 06:17N 10°26' W 014°47'0 0.0
2014-Mar-28 02:32N 10°26' W 014°47'0 0.1
2014-Mar-28 01:23N 10°26' W 014°47'0 0.2
2014-Mar-28 00:23N 10°26' W 014°47'0 0.0
2014-Mar-27 22:26N 10°26' W 014°47'0 0.0
2014-Mar-27 21:26N 10°26' W 014°47'0 0.1
2014-Mar-27 20:29N 10°26' W 014°47'0 0.1
2014-Mar-27 19:14N 10°26' W 014°47'0 0.0
2014-Mar-27 18:32N 10°26' W 014°47'0 0.1
2014-Mar-27 17:32N 10°26' W 014°47'0 0.0
2014-Mar-27 16:29N 10°26' W 014°47'0 0.0
2014-Mar-27 15:32N 10°26' W 014°47'0 0.0
2014-Mar-27 14:05N 10°26' W 014°47'0 0.0
2014-Mar-27 13:32N 10°26' W 014°47'0 0.2
2014-Mar-27 12:23N 10°26' W 014°47'0 0.1
2014-Mar-27 11:32N 10°26' W 014°47'0 0.0
2014-Mar-27 06:29N 10°26' W 014°47'0 0.1
2014-Mar-27 05:26N 10°26' W 014°47'0 0.0
2014-Mar-27 03:29N 10°26' W 014°47'0 0.0
2014-Mar-27 02:29N 10°26' W 014°47'0 0.0
2014-Mar-27 01:05N 10°26' W 014°47'0 0.1
2014-Mar-27 00:29N 10°26' W 014°47'0 0.1
2014-Mar-26 23:32N 10°26' W 014°47'0 0.0
2014-Mar-26 20:32N 10°26' W 014°47'0 0.1
2014-Mar-26 19:26N 10°26' W 014°47'9 4.7
2014-Mar-26 17:33N 10°18' W 014°50'1313.4
2014-Mar-26 16:33N 10°12' W 015°03'1413.5
2014-Mar-26 15:33N 10°06' W 015°15'1313.2
2014-Mar-26 14:33N 10°04' W 015°28'17911.8
2014-Mar-25 23:25N 12°13' W 017°35'1214.1
2014-Mar-25 22:33N 12°25' W 017°39'  

Dump ship's entire track history

sailing weather and tide predictions

Three Stars — 3ELI2 — position and weather